Time;durP1;ratioP1;P1;durP2;ratioP2;P2;SDS_P1;SDS_P2;PMS_P1;PMS_P2;Temp;Humidity;BMP_temperature;BMP_pressure;BME280_temperature;BME280_humidity;BME280_pressure;Samples;Min_cycle;Max_cycle;Signal;HPM_P1;HPM_P2
2024/04/25 00:00:53;;;;;;;3.67;1.90;;;4.90;99.90;;;;;;5462289;26;20069;-74
2024/04/25 00:03:19;;;;;;;4.00;1.90;;;4.80;99.90;;;;;;5460864;26;20002;-74
2024/04/25 00:05:44;;;;;;;3.28;1.90;;;4.80;99.90;;;;;;5461090;26;20560;-74
2024/04/25 00:08:10;;;;;;;3.63;2.13;;;4.40;99.90;;;;;;5462586;26;20017;-74
2024/04/25 00:10:36;;;;;;;4.32;2.00;;;4.20;99.90;;;;;;5460319;26;20440;-74
2024/04/25 00:13:02;;;;;;;3.92;1.90;;;4.30;99.90;;;;;;5456630;26;20036;-74
2024/04/25 00:15:28;;;;;;;4.10;2.35;;;4.30;99.90;;;;;;5459676;26;20106;-74
2024/04/25 00:17:54;;;;;;;4.72;2.47;;;4.30;99.90;;;;;;5458577;26;20487;-74
2024/04/25 00:20:19;;;;;;;3.38;2.03;;;4.30;99.90;;;;;;5459640;26;20078;-75
2024/04/25 00:22:45;;;;;;;4.72;1.95;;;4.20;99.90;;;;;;5462110;26;20078;-74
2024/04/25 00:25:11;;;;;;;4.55;2.05;;;4.20;99.90;;;;;;5459090;26;20010;-74
2024/04/25 00:27:36;;;;;;;3.97;2.10;;;4.30;99.90;;;;;;5461022;26;20108;-75
2024/04/25 00:30:03;;;;;;;4.90;1.80;;;4.20;99.90;;;;;;5461534;26;20440;-74
2024/04/25 00:32:29;;;;;;;4.13;2.30;;;4.40;99.90;;;;;;5459415;26;20010;-74
2024/04/25 00:34:57;;;;;;;3.03;1.65;;;4.30;99.90;;;;;;5458544;26;20082;-75
2024/04/25 00:37:26;;;;;;;2.88;1.70;;;4.40;99.90;;;;;;5460817;26;20006;-74
2024/04/25 00:39:52;;;;;;;3.20;1.88;;;4.20;99.90;;;;;;5460561;26;20014;-74
2024/04/25 00:42:22;;;;;;;3.30;2.03;;;4.20;99.90;;;;;;5462044;26;21354;-74
2024/04/25 00:44:49;;;;;;;3.65;2.13;;;4.20;99.90;;;;;;5459904;26;20005;-74
2024/04/25 00:47:18;;;;;;;3.65;1.88;;;4.30;99.90;;;;;;5460768;26;20074;-75
2024/04/25 00:49:45;;;;;;;3.22;1.80;;;4.30;99.90;;;;;;5460900;26;20043;-74
2024/04/25 00:52:15;;;;;;;3.97;1.73;;;4.40;99.90;;;;;;5460309;26;20017;-75
2024/04/25 00:54:42;;;;;;;3.10;1.73;;;4.50;99.90;;;;;;5460297;26;20013;-74
2024/04/25 00:57:10;;;;;;;6.63;3.05;;;4.40;99.90;;;;;;5458704;26;20002;-74
2024/04/25 00:59:38;;;;;;;5.75;3.25;;;4.50;99.90;;;;;;5461470;26;21603;-74
2024/04/25 01:02:06;;;;;;;9.88;5.38;;;4.60;99.90;;;;;;5461655;26;20006;-74
2024/04/25 01:04:34;;;;;;;6.85;3.00;;;4.50;99.90;;;;;;5457138;26;20003;-74
2024/04/25 01:07:01;;;;;;;6.00;3.20;;;4.60;99.90;;;;;;5458277;26;20344;-74
2024/04/25 01:09:28;;;;;;;5.60;2.53;;;4.50;99.90;;;;;;5462331;26;20489;-74
2024/04/25 01:11:53;;;;;;;6.15;3.47;;;4.60;99.90;;;;;;5459486;26;20452;-74
2024/04/25 01:14:19;;;;;;;4.32;2.58;;;4.70;99.90;;;;;;5456937;26;20002;-74
2024/04/25 01:16:45;;;;;;;4.03;2.47;;;4.70;99.90;;;;;;5458165;26;20042;-74
2024/04/25 01:19:10;;;;;;;3.67;1.80;;;4.80;99.90;;;;;;5458820;26;20002;-74
2024/04/25 01:21:36;;;;;;;3.83;2.00;;;4.80;99.90;;;;;;5459457;26;20013;-74
2024/04/25 01:24:04;;;;;;;4.10;1.85;;;5.00;99.90;;;;;;5460452;26;20014;-74
2024/04/25 01:26:30;;;;;;;4.05;1.90;;;5.20;99.90;;;;;;5464109;26;20022;-74
2024/04/25 01:28:57;;;;;;;5.10;2.20;;;5.20;99.90;;;;;;5463312;26;20721;-74
2024/04/25 01:31:25;;;;;;;4.03;1.80;;;5.10;99.90;;;;;;5464783;26;20006;-74
2024/04/25 01:33:52;;;;;;;4.35;2.42;;;5.10;99.90;;;;;;5462309;26;20006;-74
2024/04/25 01:36:19;;;;;;;3.33;1.80;;;5.00;99.90;;;;;;5464553;26;20006;-74
2024/04/25 01:38:44;;;;;;;4.57;2.42;;;5.00;99.90;;;;;;5464685;26;20596;-75
2024/04/25 01:41:10;;;;;;;4.93;2.00;;;5.00;99.90;;;;;;5464305;26;20022;-74
2024/04/25 01:43:35;;;;;;;4.15;2.40;;;4.90;99.90;;;;;;5462448;26;20014;-74
2024/04/25 01:46:01;;;;;;;3.67;2.00;;;4.80;99.90;;;;;;5463659;26;20017;-74
2024/04/25 01:48:27;;;;;;;4.22;2.20;;;4.80;99.90;;;;;;5463903;26;20005;-74
2024/04/25 01:50:52;;;;;;;4.20;2.45;;;4.90;99.90;;;;;;5462625;26;20036;-74
2024/04/25 01:53:18;;;;;;;4.63;2.72;;;4.80;99.90;;;;;;5464179;26;20005;-74
2024/04/25 01:55:44;;;;;;;3.78;2.15;;;4.90;99.90;;;;;;5462053;26;20505;-74
2024/04/25 01:58:09;;;;;;;3.90;2.38;;;4.90;99.90;;;;;;5461889;26;20070;-74
2024/04/25 02:00:35;;;;;;;5.05;2.53;;;5.00;99.90;;;;;;5465966;26;20046;-74
2024/04/25 02:03:00;;;;;;;5.47;2.40;;;5.10;99.90;;;;;;5464146;26;20075;-74
2024/04/25 02:05:26;;;;;;;4.72;2.92;;;5.10;99.90;;;;;;5462140;26;20467;-74
2024/04/25 02:07:52;;;;;;;3.38;1.98;;;5.10;99.90;;;;;;5461791;26;20005;-74
2024/04/25 02:10:17;;;;;;;5.15;2.50;;;5.10;99.90;;;;;;5461992;26;20479;-74
2024/04/25 02:12:43;;;;;;;4.90;2.60;;;5.10;99.90;;;;;;5460179;26;20002;-74
2024/04/25 02:15:08;;;;;;;7.18;2.92;;;5.10;99.90;;;;;;5463184;26;20010;-74
2024/04/25 02:17:37;;;;;;;5.13;3.15;;;5.10;99.90;;;;;;5461176;26;20383;-74
2024/04/25 02:25:13;;;;;;;6.70;3.42;;;5.00;99.90;;;;;;5460615;26;20006;-75
2024/04/25 02:25:32;;;;;;;5.43;3.50;;;5.00;99.90;;;;;;5461812;26;20344;-74
2024/04/25 02:27:58;;;;;;;5.60;3.25;;;5.00;99.90;;;;;;5463827;26;20037;-75
2024/04/25 02:30:24;;;;;;;6.55;3.88;;;4.90;99.90;;;;;;5462152;26;20005;-74
2024/04/25 02:32:49;;;;;;;5.53;3.47;;;5.00;99.90;;;;;;5460253;26;20017;-74
2024/04/25 02:35:15;;;;;;;6.05;3.60;;;4.90;99.90;;;;;;5464063;26;20013;-74
2024/04/25 02:37:41;;;;;;;6.47;3.65;;;4.80;99.90;;;;;;5459147;26;20009;-74
2024/04/25 02:40:07;;;;;;;6.40;3.90;;;4.70;99.90;;;;;;5462602;26;20013;-74
2024/04/25 02:42:32;;;;;;;6.70;3.70;;;4.70;99.90;;;;;;5462955;26;20401;-74
2024/04/25 02:44:58;;;;;;;6.22;3.97;;;4.70;99.90;;;;;;5462316;26;19994;-75
2024/04/25 02:47:23;;;;;;;7.40;4.30;;;4.60;99.90;;;;;;5461080;26;20013;-74
2024/04/25 02:49:49;;;;;;;6.68;4.07;;;4.50;99.90;;;;;;5462983;26;19998;-74
2024/04/25 02:52:15;;;;;;;6.93;4.25;;;4.40;99.90;;;;;;5461431;26;20006;-74
2024/04/25 02:54:40;;;;;;;8.43;4.20;;;4.30;99.90;;;;;;5462012;26;20023;-74
2024/04/25 02:57:06;;;;;;;6.30;3.67;;;4.20;99.90;;;;;;5462124;26;20351;-74
2024/04/25 02:59:32;;;;;;;7.40;3.80;;;4.10;99.90;;;;;;5462559;26;19990;-74
2024/04/25 03:01:57;;;;;;;8.55;5.03;;;4.20;99.90;;;;;;5458543;26;20444;-74
2024/04/25 03:04:23;;;;;;;5.95;3.70;;;4.10;99.90;;;;;;5453799;26;20010;-74
2024/04/25 03:06:49;;;;;;;7.60;4.45;;;4.00;99.90;;;;;;5455001;26;20002;-75
2024/04/25 03:09:14;;;;;;;6.18;4.07;;;4.10;99.90;;;;;;5453346;26;20069;-74
2024/04/25 03:11:40;;;;;;;7.03;4.88;;;4.10;99.90;;;;;;5455557;26;20083;-74
2024/04/25 03:14:06;;;;;;;9.32;4.75;;;4.00;99.90;;;;;;5454359;26;19998;-74
2024/04/25 03:16:32;;;;;;;7.40;4.65;;;4.10;99.90;;;;;;5452960;26;20010;-75
2024/04/25 03:18:58;;;;;;;9.25;5.28;;;4.10;99.90;;;;;;5451970;26;20035;-75
2024/04/25 03:21:23;;;;;;;8.23;4.50;;;4.10;99.90;;;;;;5451911;26;20006;-75
2024/04/25 03:23:49;;;;;;;7.07;4.30;;;4.10;99.90;;;;;;5450237;26;20010;-74
2024/04/25 03:26:14;;;;;;;6.50;4.28;;;4.20;99.90;;;;;;5453544;26;20048;-74
2024/04/25 03:28:40;;;;;;;7.80;4.47;;;4.30;99.90;;;;;;5450032;26;20071;-74
2024/04/25 03:31:06;;;;;;;6.65;3.70;;;4.50;99.90;;;;;;5451430;26;20013;-74
2024/04/25 03:33:31;;;;;;;7.85;4.15;;;4.50;99.90;;;;;;5450570;26;20005;-74
2024/04/25 03:35:57;;;;;;;7.13;4.00;;;4.60;99.90;;;;;;5449832;26;20021;-74
2024/04/25 03:38:22;;;;;;;6.45;4.05;;;4.60;99.90;;;;;;5450960;26;20002;-74
2024/04/25 03:40:48;;;;;;;5.95;3.58;;;4.50;99.90;;;;;;5452045;26;20336;-74
2024/04/25 03:43:14;;;;;;;6.47;3.92;;;4.50;99.90;;;;;;5451775;26;20516;-74
2024/04/25 03:45:39;;;;;;;6.78;3.55;;;4.30;99.90;;;;;;5450837;26;20001;-75
2024/04/25 03:48:05;;;;;;;5.72;3.63;;;4.20;99.90;;;;;;5453396;26;20574;-75
2024/04/25 03:50:31;;;;;;;5.82;3.88;;;4.20;99.90;;;;;;5454321;26;20002;-75
2024/04/25 03:52:57;;;;;;;6.97;3.90;;;4.10;99.90;;;;;;5453594;26;20012;-74
2024/04/25 03:55:22;;;;;;;5.38;3.45;;;4.10;99.90;;;;;;5453552;26;20009;-75
2024/04/25 03:57:48;;;;;;;5.40;3.60;;;4.00;99.90;;;;;;5451182;26;20052;-74
2024/04/25 04:00:14;;;;;;;6.10;3.80;;;4.00;99.90;;;;;;5451343;26;20037;-75
2024/04/25 04:02:39;;;;;;;6.43;4.10;;;4.00;99.90;;;;;;5451231;26;20398;-74
2024/04/25 04:05:05;;;;;;;5.15;3.20;;;4.00;99.90;;;;;;5448970;26;20464;-76
2024/04/25 04:07:31;;;;;;;5.32;2.92;;;3.90;99.90;;;;;;5449763;26;20002;-74
2024/04/25 04:09:56;;;;;;;6.43;3.70;;;3.90;99.90;;;;;;5451776;26;20025;-74
2024/04/25 04:12:22;;;;;;;5.75;3.83;;;3.90;99.90;;;;;;5449985;26;20533;-74
2024/04/25 04:14:48;;;;;;;5.20;3.50;;;3.80;99.90;;;;;;5452278;26;20002;-74
2024/04/25 04:17:14;;;;;;;7.38;3.75;;;3.90;99.90;;;;;;5451396;26;20355;-74
2024/04/25 04:19:40;;;;;;;5.53;3.72;;;3.90;99.90;;;;;;5450907;26;24694;-74
2024/04/25 04:22:05;;;;;;;5.30;3.22;;;3.80;99.90;;;;;;5448096;26;20872;-74
2024/04/25 04:24:31;;;;;;;6.65;3.10;;;3.70;99.90;;;;;;5450666;26;20006;-74
2024/04/25 04:26:56;;;;;;;5.20;3.17;;;3.50;99.90;;;;;;5451677;26;20002;-74
2024/04/25 04:29:22;;;;;;;5.90;3.28;;;3.60;99.90;;;;;;5451117;26;19998;-74
2024/04/25 04:31:48;;;;;;;5.25;3.38;;;3.70;99.90;;;;;;5449531;26;20022;-74
2024/04/25 04:34:14;;;;;;;5.82;3.53;;;3.60;99.90;;;;;;5452097;26;20025;-74
2024/04/25 04:36:39;;;;;;;5.72;3.53;;;3.60;99.90;;;;;;5449650;26;20002;-74
2024/04/25 04:39:06;;;;;;;5.25;3.20;;;3.70;99.90;;;;;;5451413;26;20002;-74
2024/04/25 04:41:32;;;;;;;5.25;3.30;;;3.70;99.90;;;;;;5451670;26;20006;-75
2024/04/25 04:44:00;;;;;;;5.22;3.15;;;3.70;99.90;;;;;;5450567;26;19998;-75
2024/04/25 04:46:26;;;;;;;6.15;3.25;;;3.70;99.90;;;;;;5449443;26;20001;-74
2024/04/25 04:48:52;;;;;;;4.60;2.75;;;3.70;99.90;;;;;;5452196;26;20939;-74
2024/04/25 04:51:20;;;;;;;6.18;2.90;;;3.70;99.90;;;;;;5450155;26;20010;-74
2024/04/25 04:53:47;;;;;;;6.07;3.17;;;3.80;99.90;;;;;;5450876;26;20002;-74
2024/04/25 04:56:12;;;;;;;4.20;2.40;;;3.60;99.90;;;;;;5451460;26;20021;-74
2024/04/25 04:58:38;;;;;;;4.53;2.60;;;3.50;99.90;;;;;;5450652;26;20006;-74
2024/04/25 05:01:04;;;;;;;5.43;2.70;;;3.30;99.90;;;;;;5453043;26;20006;-74
2024/04/25 05:03:30;;;;;;;4.63;2.42;;;3.30;99.90;;;;;;5453903;26;20034;-75
2024/04/25 05:05:56;;;;;;;5.07;2.85;;;3.30;99.90;;;;;;5450029;26;20866;-74
2024/04/25 05:08:22;;;;;;;5.82;3.50;;;3.50;99.90;;;;;;5452555;26;20092;-74
2024/04/25 05:10:47;;;;;;;5.05;3.47;;;3.70;99.90;;;;;;5454801;26;20788;-74
2024/04/25 05:13:13;;;;;;;5.72;3.30;;;3.70;99.90;;;;;;5453905;26;20403;-74
2024/04/25 05:15:39;;;;;;;4.82;2.80;;;3.80;99.90;;;;;;5451742;26;20045;-74
2024/04/25 05:18:05;;;;;;;5.85;3.20;;;4.00;99.90;;;;;;5454580;26;20016;-75
2024/04/25 05:20:32;;;;;;;5.53;3.33;;;4.10;99.90;;;;;;5454645;26;20002;-75
2024/04/25 05:22:58;;;;;;;4.95;2.92;;;4.20;99.90;;;;;;5452141;26;20410;-75
2024/04/25 05:25:23;;;;;;;4.72;3.20;;;4.30;99.90;;;;;;5453665;26;20010;-74
2024/04/25 05:27:51;;;;;;;6.03;3.58;;;4.30;99.90;;;;;;5453247;26;20464;-74
2024/04/25 05:30:20;;;;;;;5.72;3.00;;;4.10;99.90;;;;;;5453595;26;20434;-74
2024/04/25 05:32:46;;;;;;;5.78;3.30;;;4.20;99.90;;;;;;5453349;26;20074;-74
2024/04/25 05:35:11;;;;;;;7.07;3.28;;;4.30;99.90;;;;;;5452272;26;20370;-74
2024/04/25 05:37:37;;;;;;;5.65;3.42;;;4.30;99.90;;;;;;5451695;26;20906;-74
2024/04/25 05:40:03;;;;;;;6.80;3.20;;;4.30;99.90;;;;;;5454769;26;20009;-74
2024/04/25 05:42:29;;;;;;;5.65;3.17;;;4.30;99.90;;;;;;5451766;26;19998;-74
2024/04/25 05:44:54;;;;;;;5.60;2.63;;;4.20;99.90;;;;;;5453422;26;20002;-75
2024/04/25 05:47:20;;;;;;;5.10;2.90;;;4.20;99.90;;;;;;5455245;26;20002;-74
2024/04/25 05:49:46;;;;;;;6.05;3.00;;;4.20;99.90;;;;;;5453403;26;19994;-74
2024/04/25 05:52:16;;;;;;;5.32;3.42;;;4.20;99.90;;;;;;5451615;26;20018;-75
2024/04/25 05:54:41;;;;;;;4.63;2.50;;;4.20;99.90;;;;;;5454338;26;20002;-75
2024/04/25 05:57:08;;;;;;;5.75;3.22;;;4.30;99.90;;;;;;5452763;26;20335;-74
2024/04/25 05:59:33;;;;;;;5.00;2.88;;;4.30;99.90;;;;;;5449564;26;20363;-75
2024/04/25 06:01:59;;;;;;;4.80;3.00;;;4.20;99.90;;;;;;5454161;26;20010;-75
2024/04/25 06:04:30;;;;;;;7.20;4.07;;;3.90;99.90;;;;;;5451567;26;20002;-74
2024/04/25 06:06:56;;;;;;;6.57;3.92;;;4.00;99.90;;;;;;5452016;26;20007;-75
2024/04/25 06:09:22;;;;;;;5.90;3.38;;;4.10;99.90;;;;;;5451336;26;20404;-74
2024/04/25 06:11:48;;;;;;;5.55;3.35;;;4.30;99.90;;;;;;5450965;26;20017;-73
2024/04/25 06:14:14;;;;;;;6.22;3.60;;;4.40;99.90;;;;;;5452273;26;20003;-74
2024/04/25 06:16:39;;;;;;;7.40;4.00;;;4.70;99.90;;;;;;5450806;26;20005;-72
2024/04/25 06:19:08;;;;;;;6.90;3.65;;;4.80;99.90;;;;;;5450307;26;20018;-75
2024/04/25 06:21:34;;;;;;;6.15;3.60;;;5.00;99.90;;;;;;5450807;26;20002;-73
2024/04/25 06:23:59;;;;;;;6.15;3.17;;;5.20;99.90;;;;;;5450709;26;20045;-73
2024/04/25 06:26:25;;;;;;;6.82;3.78;;;5.40;99.90;;;;;;5447809;26;20020;-74
2024/04/25 06:28:51;;;;;;;7.38;4.70;;;5.50;99.90;;;;;;5451886;26;20073;-74
2024/04/25 06:31:16;;;;;;;7.15;4.65;;;5.70;99.90;;;;;;5454119;26;20001;-73
2024/04/25 06:33:42;;;;;;;7.50;4.28;;;6.00;99.90;;;;;;5449775;26;20063;-73
2024/04/25 06:36:11;;;;;;;7.82;4.80;;;6.10;99.90;;;;;;5451113;26;20652;-73
2024/04/25 06:38:37;;;;;;;8.23;4.70;;;6.30;99.90;;;;;;5452661;26;20942;-74
2024/04/25 06:41:03;;;;;;;6.95;4.25;;;6.50;99.90;;;;;;5453521;26;20006;-74
2024/04/25 06:43:28;;;;;;;7.07;4.57;;;6.70;99.90;;;;;;5451791;26;20340;-74
2024/04/25 06:45:54;;;;;;;6.80;3.75;;;6.80;99.90;;;;;;5452537;26;20010;-74
2024/04/25 06:48:20;;;;;;;7.30;4.30;;;6.90;99.90;;;;;;5452958;26;20052;-74
2024/04/25 06:50:45;;;;;;;7.25;4.47;;;7.00;99.90;;;;;;5451766;26;20050;-75
2024/04/25 06:53:12;;;;;;;8.88;4.95;;;7.20;99.90;;;;;;5450148;26;20025;-75
2024/04/25 06:55:38;;;;;;;7.70;4.90;;;7.50;99.90;;;;;;5453398;26;20008;-75
2024/04/25 06:58:04;;;;;;;7.55;3.60;;;7.70;99.90;;;;;;5451004;26;20070;-75
2024/04/25 07:00:31;;;;;;;6.80;3.50;;;8.00;99.90;;;;;;5450564;26;20006;-76
2024/04/25 07:02:57;;;;;;;6.55;3.50;;;9.20;99.90;;;;;;5449566;26;20427;-75
2024/04/25 07:05:22;;;;;;;5.50;3.42;;;10.00;99.90;;;;;;5456178;26;20002;-75
2024/04/25 07:07:49;;;;;;;6.13;3.10;;;11.30;99.90;;;;;;5450961;26;20663;-76
2024/04/25 07:10:15;;;;;;;5.78;2.80;;;12.70;99.90;;;;;;5449672;26;20002;-75
2024/04/25 07:12:40;;;;;;;4.82;2.38;;;13.90;97.70;;;;;;5452204;26;20002;-75
2024/04/25 07:15:06;;;;;;;5.55;2.95;;;14.80;95.90;;;;;;5452772;26;20071;-75
2024/04/25 07:17:36;;;;;;;4.82;2.15;;;14.80;95.20;;;;;;5451202;26;20532;-75
2024/04/25 07:20:02;;;;;;;4.20;2.03;;;15.30;93.80;;;;;;5449051;26;19993;-75
2024/04/25 07:22:28;;;;;;;4.45;2.28;;;15.50;93.40;;;;;;5448663;26;20059;-75
2024/04/25 07:24:53;;;;;;;5.07;2.42;;;15.40;92.50;;;;;;5449543;26;20002;-75
2024/04/25 07:27:19;;;;;;;6.60;2.28;;;15.40;93.10;;;;;;5451493;26;20010;-75
2024/04/25 07:29:46;;;;;;;5.05;2.40;;;15.20;92.90;;;;;;5448757;26;20002;-75
2024/04/25 07:32:15;;;;;;;4.15;1.83;;;15.00;92.60;;;;;;5450889;26;20756;-75
2024/04/25 07:34:41;;;;;;;3.65;1.92;;;15.00;92.50;;;;;;5450405;26;20006;-75
2024/04/25 07:37:07;;;;;;;3.65;1.77;;;15.20;91.90;;;;;;5447926;26;20016;-75
2024/04/25 07:39:32;;;;;;;7.43;2.60;;;14.50;91.80;;;;;;5453345;26;21440;-75
2024/04/25 07:41:58;;;;;;;3.65;2.00;;;12.20;94.10;;;;;;5450442;26;20066;-74
2024/04/25 07:44:23;;;;;;;3.83;2.30;;;10.10;96.20;;;;;;5450429;26;20618;-76
2024/04/25 07:46:49;;;;;;;4.75;2.47;;;9.20;98.80;;;;;;5453186;26;20017;-74
2024/04/25 07:49:17;;;;;;;4.38;2.35;;;8.40;99.90;;;;;;5450424;26;20789;-75
2024/04/25 07:51:43;;;;;;;5.18;2.72;;;8.30;99.90;;;;;;5451759;26;21553;-75
2024/04/25 07:54:09;;;;;;;6.10;2.65;;;8.10;99.90;;;;;;5453637;26;20070;-75
2024/04/25 07:56:36;;;;;;;4.70;2.55;;;7.90;99.90;;;;;;5451843;26;20434;-75
2024/04/25 07:59:02;;;;;;;4.78;2.70;;;8.00;99.90;;;;;;5450524;26;20059;-75
2024/04/25 08:01:27;;;;;;;4.95;2.78;;;8.10;99.90;;;;;;5446175;26;21162;-75
2024/04/25 08:03:53;;;;;;;5.63;3.28;;;8.30;99.90;;;;;;5449920;26;20020;-75
2024/04/25 08:06:19;;;;;;;4.60;2.47;;;8.20;99.90;;;;;;5453526;26;20006;-74
2024/04/25 08:08:44;;;;;;;4.47;2.30;;;8.10;99.90;;;;;;5448282;26;20006;-75
2024/04/25 08:11:11;;;;;;;4.10;2.22;;;8.10;99.90;;;;;;5450890;26;20088;-75
2024/04/25 08:13:37;;;;;;;5.55;2.83;;;8.20;99.90;;;;;;5449368;26;20020;-74
2024/04/25 08:16:03;;;;;;;4.85;2.63;;;8.50;99.90;;;;;;5450338;26;20010;-75
2024/04/25 08:18:28;;;;;;;6.60;2.55;;;8.60;99.90;;;;;;5451225;26;20049;-75
2024/04/25 08:20:54;;;;;;;4.00;2.28;;;8.50;99.90;;;;;;5450354;26;20049;-74
2024/04/25 08:23:20;;;;;;;3.15;1.75;;;8.70;99.90;;;;;;5448667;26;20772;-75
2024/04/25 08:25:45;;;;;;;3.88;1.80;;;8.70;98.30;;;;;;5448121;26;20002;-75
2024/04/25 08:28:11;;;;;;;4.53;2.10;;;9.00;98.90;;;;;;5445608;26;20059;-74
2024/04/25 08:30:37;;;;;;;4.07;1.65;;;10.80;98.10;;;;;;5449896;26;20809;-74
2024/04/25 08:33:03;;;;;;;3.88;1.83;;;12.40;96.50;;;;;;5450068;26;20003;-74
2024/04/25 08:35:29;;;;;;;3.97;1.63;;;13.10;95.50;;;;;;5450336;26;19998;-74
2024/04/25 08:37:55;;;;;;;3.20;1.58;;;14.10;93.20;;;;;;5452698;26;20021;-74
2024/04/25 08:40:20;;;;;;;3.90;2.00;;;14.20;93.90;;;;;;5452488;26;20107;-74
2024/04/25 08:42:50;;;;;;;4.47;1.35;;;14.30;93.50;;;;;;5448632;26;20006;-74
2024/04/25 08:45:16;;;;;;;4.85;1.75;;;14.70;92.60;;;;;;5449218;26;20802;-74
2024/04/25 08:47:42;;;;;;;5.05;1.42;;;14.50;92.20;;;;;;5448180;26;20006;-74
2024/04/25 08:50:09;;;;;;;3.50;1.83;;;14.00;90.80;;;;;;5448907;26;20053;-73
2024/04/25 08:52:37;;;;;;;4.85;1.60;;;13.00;92.00;;;;;;5452500;26;20014;-74
2024/04/25 08:55:05;;;;;;;3.50;1.50;;;12.40;94.60;;;;;;5454560;26;20006;-73
2024/04/25 08:57:31;;;;;;;3.58;1.50;;;11.70;92.20;;;;;;5447355;26;20011;-74
2024/04/25 08:59:57;;;;;;;4.63;2.38;;;11.00;92.20;;;;;;5365661;26;20035;-73
2024/04/25 09:02:25;;;;;;;8.65;2.72;;;11.00;92.10;;;;;;5347471;26;21200;-73
2024/04/25 09:04:54;;;;;;;3.88;1.73;;;11.20;92.60;;;;;;5349437;26;20445;-73
2024/04/25 09:07:20;;;;;;;49.40;26.25;;;10.90;91.60;;;;;;5352805;26;20008;-74
2024/04/25 09:09:46;;;;;;;15.82;8.38;;;10.70;93.90;;;;;;5349728;26;20019;-74
2024/04/25 09:12:11;;;;;;;8.73;5.03;;;10.80;94.80;;;;;;5348429;26;20004;-73
2024/04/25 09:14:37;;;;;;;5.60;2.67;;;10.70;94.90;;;;;;5346681;26;20012;-73
2024/04/25 09:17:03;;;;;;;5.65;2.53;;;10.90;95.10;;;;;;5348353;26;20019;-73
2024/04/25 09:19:28;;;;;;;5.43;2.20;;;11.40;95.70;;;;;;5349300;26;20009;-73
2024/04/25 09:21:54;;;;;;;4.68;1.95;;;11.50;95.70;;;;;;5349752;26;22102;-74
2024/04/25 09:24:20;;;;;;;3.00;1.30;;;11.40;94.90;;;;;;5346546;26;20004;-74
2024/04/25 09:26:46;;;;;;;4.13;1.77;;;11.40;93.90;;;;;;5344845;26;21053;-74
2024/04/25 09:29:12;;;;;;;3.30;1.30;;;11.50;94.20;;;;;;5344071;26;20628;-73
2024/04/25 09:31:38;;;;;;;2.67;1.17;;;11.70;93.70;;;;;;5346803;26;19996;-73
2024/04/25 09:34:04;;;;;;;3.38;1.35;;;11.80;93.40;;;;;;5347647;26;20023;-73
2024/04/25 09:36:30;;;;;;;2.72;1.25;;;11.90;92.90;;;;;;5353132;26;20343;-73
2024/04/25 09:38:56;;;;;;;3.63;1.48;;;12.10;92.60;;;;;;5351363;26;20083;-73
2024/04/25 09:41:22;;;;;;;2.15;1.25;;;12.30;92.70;;;;;;5350791;26;20012;-73
2024/04/25 09:43:49;;;;;;;2.83;1.10;;;12.50;93.00;;;;;;5350729;26;20016;-73
2024/04/25 09:46:22;;;;;;;5.22;2.40;;;12.40;94.30;;;;;;5352024;26;20008;-73
2024/04/25 09:48:53;;;;;;;3.13;1.27;;;12.30;94.10;;;;;;5351113;26;20012;-73
2024/04/25 09:51:28;;;;;;;2.00;1.10;;;12.50;91.20;;;;;;5345879;26;20008;-73
2024/04/25 09:54:07;;;;;;;2.30;0.90;;;12.80;92.10;;;;;;5346806;26;20004;-72
2024/04/25 09:56:36;;;;;;;3.00;1.17;;;12.90;92.60;;;;;;5351040;26;20008;-72
2024/04/25 09:59:12;;;;;;;3.88;1.52;;;12.70;91.20;;;;;;5348970;26;20016;-72
2024/04/25 10:01:38;;;;;;;2.40;0.90;;;12.90;93.50;;;;;;5346446;26;20011;-72
2024/04/25 10:04:05;;;;;;;2.78;0.90;;;13.10;93.50;;;;;;5348034;26;20012;-73
2024/04/25 10:06:32;;;;;;;2.33;1.00;;;13.10;93.00;;;;;;5351749;26;20020;-73
2024/04/25 10:08:58;;;;;;;2.67;1.23;;;13.00;92.90;;;;;;5347976;26;20015;-72
2024/04/25 10:11:27;;;;;;;2.25;0.82;;;13.10;92.20;;;;;;5351203;26;20518;-73
2024/04/25 10:13:53;;;;;;;3.40;0.90;;;13.10;92.90;;;;;;5332961;26;20050;-73
2024/04/25 10:16:21;;;;;;;1.83;0.75;;;13.40;92.50;;;;;;5328657;26;20053;-73
2024/04/25 10:18:51;;;;;;;1.73;0.70;;;13.50;90.70;;;;;;5348439;26;20331;-72
2024/04/25 10:21:16;;;;;;;1.58;0.63;;;13.50;90.30;;;;;;5350970;26;20000;-73
2024/04/25 10:23:42;;;;;;;2.42;0.47;;;13.40;86.40;;;;;;5342554;26;20021;-73
2024/04/25 10:26:18;;;;;;;2.13;0.60;;;13.80;89.90;;;;;;5343440;26;20804;-73
2024/04/25 10:28:56;;;;;;;0.40;0.20;;;14.30;88.80;;;;;;5349732;26;20028;-73
2024/04/25 10:31:38;;;;;;;0.88;0.40;;;14.30;87.60;;;;;;5350720;26;20079;-73
2024/04/25 10:34:04;;;;;;;3.30;0.50;;;14.40;88.20;;;;;;5345024;26;20080;-73
2024/04/25 10:36:32;;;;;;;1.02;0.55;;;14.40;82.40;;;;;;5346507;26;20000;-73
2024/04/25 10:38:58;;;;;;;0.88;0.35;;;14.70;82.90;;;;;;5349270;26;20004;-72
2024/04/25 10:41:35;;;;;;;0.30;0.20;;;14.90;80.10;;;;;;5349317;26;20069;-73
2024/04/25 10:44:01;;;;;;;0.98;0.52;;;15.00;81.20;;;;;;5338094;26;20008;-74
2024/04/25 10:46:27;;;;;;;0.40;0.20;;;15.30;81.00;;;;;;5347298;26;20579;-74
2024/04/25 10:48:53;;;;;;;0.22;0.10;;;15.20;70.10;;;;;;5348066;26;20015;-74
2024/04/25 10:51:19;;;;;;;0.80;0.40;;;14.80;72.00;;;;;;5346738;26;20000;-73
2024/04/25 10:53:45;;;;;;;0.80;0.30;;;14.70;75.40;;;;;;5344842;26;20478;-74
2024/04/25 10:56:11;;;;;;;1.38;0.60;;;15.10;78.80;;;;;;5345040;26;20084;-75
2024/04/25 10:58:49;;;;;;;1.85;0.75;;;15.50;77.60;;;;;;5342288;26;20004;-74
2024/04/25 11:01:40;;;;;;;0.73;0.40;;;15.40;75.50;;;;;;5347357;26;20584;-75
2024/04/25 11:04:06;;;;;;;2.35;0.38;;;14.80;77.60;;;;;;5346189;26;20012;-75
2024/04/25 11:06:35;;;;;;;2.25;0.73;;;14.40;76.80;;;;;;5349726;26;20701;-74
2024/04/25 11:09:01;;;;;;;1.02;0.35;;;14.70;76.40;;;;;;5344936;26;20004;-73
2024/04/25 11:11:27;;;;;;;1.42;0.57;;;14.90;78.90;;;;;;5338052;26;20000;-74
2024/04/25 11:13:54;;;;;;;0.70;0.30;;;15.00;77.10;;;;;;5334846;26;20585;-73
2024/04/25 11:16:23;;;;;;;0.65;0.30;;;15.20;77.00;;;;;;5325489;26;20141;-75
2024/04/25 11:18:49;;;;;;;0.52;0.20;;;15.20;73.30;;;;;;5341538;26;20804;-76
2024/04/25 11:21:16;;;;;;;0.73;0.28;;;15.00;74.80;;;;;;5349573;26;20008;-74
2024/04/25 11:23:42;;;;;;;1.10;0.30;;;15.10;77.60;;;;;;5343476;26;20018;-73
2024/04/25 11:26:08;;;;;;;1.15;0.57;;;15.30;78.10;;;;;;5338524;26;21649;-71
2024/04/25 11:28:34;;;;;;;1.25;0.70;;;15.50;78.60;;;;;;5346457;26;20460;-73
2024/04/25 11:31:00;;;;;;;2.40;1.08;;;15.30;76.00;;;;;;5349423;26;20034;-71
2024/04/25 11:33:27;;;;;;;3.63;1.30;;;14.80;76.00;;;;;;5344306;26;20005;-71
2024/04/25 11:35:54;;;;;;;5.50;2.60;;;14.60;77.90;;;;;;5340848;26;20031;-70
2024/04/25 11:38:21;;;;;;;4.75;2.13;;;15.00;79.80;;;;;;5348444;26;20023;-71
2024/04/25 11:40:48;;;;;;;2.85;1.40;;;15.50;76.70;;;;;;5347416;26;20008;-71
2024/04/25 11:43:18;;;;;;;1.63;0.77;;;15.60;75.80;;;;;;5351727;26;20004;-70
2024/04/25 11:45:46;;;;;;;2.42;1.02;;;15.80;79.00;;;;;;5341451;26;20075;-70
2024/04/25 11:48:16;;;;;;;3.97;2.08;;;15.50;77.40;;;;;;5345481;26;20028;-71
2024/04/25 11:50:42;;;;;;;2.83;1.23;;;14.90;75.70;;;;;;5336787;26;20047;-71
2024/04/25 11:53:09;;;;;;;3.50;1.50;;;14.30;75.00;;;;;;5342492;26;20016;-71
2024/04/25 11:55:39;;;;;;;2.38;1.13;;;14.00;77.30;;;;;;5336418;26;20018;-72
2024/04/25 11:58:07;;;;;;;2.47;0.95;;;14.10;78.30;;;;;;5339151;26;20008;-72
2024/04/25 12:00:38;;;;;;;2.03;1.15;;;14.10;77.50;;;;;;5339638;26;20050;-71
2024/04/25 12:03:05;;;;;;;1.23;0.93;;;14.40;78.30;;;;;;5337209;26;20060;-72
2024/04/25 12:05:34;;;;;;;2.92;1.38;;;15.10;79.70;;;;;;5333036;26;20000;-71
2024/04/25 12:08:03;;;;;;;1.20;0.70;;;15.00;76.10;;;;;;5343834;26;20015;-71
2024/04/25 12:10:32;;;;;;;1.55;0.60;;;15.20;74.90;;;;;;5342650;26;20000;-71
2024/04/25 12:12:58;;;;;;;2.30;0.65;;;15.50;77.40;;;;;;5344320;26;19996;-71
2024/04/25 12:15:24;;;;;;;2.40;0.80;;;15.60;76.00;;;;;;5338177;26;20019;-72
2024/04/25 12:17:49;;;;;;;3.80;1.10;;;15.60;79.10;;;;;;5345654;26;20004;-71
2024/04/25 12:20:16;;;;;;;1.73;0.80;;;15.10;76.90;;;;;;5341942;26;20008;-71
2024/04/25 12:22:42;;;;;;;1.25;0.68;;;14.90;79.30;;;;;;5340796;26;20031;-71
2024/04/25 12:25:08;;;;;;;3.72;1.63;;;14.80;79.10;;;;;;5337289;26;20009;-71
2024/04/25 12:27:33;;;;;;;1.52;0.80;;;14.60;79.00;;;;;;5342285;26;20019;-71
2024/04/25 12:29:59;;;;;;;2.40;1.13;;;14.20;80.40;;;;;;5336462;26;20016;-72
2024/04/25 12:32:25;;;;;;;3.65;1.17;;;14.10;81.70;;;;;;5340161;26;19992;-71
2024/04/25 12:34:50;;;;;;;2.58;1.10;;;14.10;81.50;;;;;;5339881;26;20009;-71
2024/04/25 12:37:16;;;;;;;2.05;0.95;;;13.90;82.00;;;;;;5344639;26;20019;-71
2024/04/25 12:39:42;;;;;;;1.42;0.90;;;13.70;81.90;;;;;;5342280;26;20012;-71
2024/04/25 12:42:08;;;;;;;1.55;0.70;;;13.60;81.20;;;;;;5342778;26;20111;-71
2024/04/25 12:44:34;;;;;;;3.28;1.20;;;13.70;82.20;;;;;;5340935;26;20016;-71
2024/04/25 12:47:00;;;;;;;3.65;1.40;;;13.60;82.80;;;;;;5341283;26;20005;-72
2024/04/25 12:49:35;;;;;;;5.30;1.70;;;13.60;83.20;;;;;;5340111;26;20011;-71
2024/04/25 12:52:02;;;;;;;2.33;1.27;;;13.50;85.20;;;;;;5342143;26;20008;-71